createdAt,value
2016-11-08T00:00:34.826Z,1011.89
2016-11-08T00:05:34.772Z,1011.91
2016-11-08T00:10:34.716Z,1011.84
2016-11-08T00:15:34.662Z,1011.9
2016-11-08T00:20:34.606Z,1011.86
2016-11-08T00:25:34.548Z,1011.9
2016-11-08T00:30:34.492Z,1011.88
2016-11-08T00:35:34.436Z,1011.84
2016-11-08T00:40:34.601Z,1011.87
2016-11-08T00:45:34.322Z,1011.88
2016-11-08T00:50:34.269Z,1011.83
2016-11-08T00:55:34.208Z,1011.79
2016-11-08T01:00:34.152Z,1011.76
2016-11-08T01:05:34.094Z,1011.69
2016-11-08T01:10:34.040Z,1011.68
2016-11-08T01:15:33.977Z,1011.66
2016-11-08T01:20:33.920Z,1011.6
2016-11-08T01:25:33.861Z,1011.58
2016-11-08T01:30:33.820Z,1011.6
2016-11-08T01:35:33.743Z,1011.52
2016-11-08T01:40:33.684Z,1011.58
2016-11-08T01:45:33.625Z,1011.49
2016-11-08T01:50:33.571Z,1011.51
2016-11-08T01:55:33.507Z,1011.51
2016-11-08T02:00:33.447Z,1011.44
2016-11-08T02:05:33.389Z,1011.42
2016-11-08T02:10:33.329Z,1011.29
2016-11-08T02:15:33.270Z,1011.21
2016-11-08T02:20:33.212Z,1011.22
2016-11-08T02:25:33.152Z,1011.3
2016-11-08T02:30:33.092Z,1011.28
2016-11-08T02:35:33.031Z,1011.24
2016-11-08T02:40:32.972Z,1011.24
2016-11-08T02:45:32.914Z,1011.35
2016-11-08T02:50:32.852Z,1011.37
2016-11-08T02:55:32.792Z,1011.32
2016-11-08T03:00:32.732Z,1011.35
2016-11-08T03:05:32.675Z,1011.32
2016-11-08T03:10:32.613Z,1011.26
2016-11-08T03:15:32.553Z,1011.21
2016-11-08T03:20:32.493Z,1011.22
2016-11-08T03:25:32.435Z,1011.26
2016-11-08T03:30:32.375Z,1011.23
2016-11-08T03:35:32.312Z,1011.26
2016-11-08T03:40:32.256Z,1011.25
2016-11-08T03:45:32.195Z,1011.28
2016-11-08T03:50:32.133Z,1011.22
2016-11-08T03:55:32.077Z,1011.11
2016-11-08T04:00:32.011Z,1011.18
2016-11-08T04:05:31.955Z,1011.23
2016-11-08T04:10:31.891Z,1011.26
2016-11-08T04:15:31.831Z,1011.32
2016-11-08T04:20:31.771Z,1011.34
2016-11-08T04:25:31.709Z,1011.25
2016-11-08T04:30:31.646Z,1011.27
2016-11-08T04:35:31.586Z,1011.31
2016-11-08T04:40:31.524Z,1011.21
2016-11-08T04:45:31.462Z,1011.24
2016-11-08T04:50:31.403Z,1011.21
2016-11-08T04:55:31.340Z,1011.21
2016-11-08T05:00:31.278Z,1011.23
2016-11-08T05:05:31.218Z,1011.16
2016-11-08T05:10:31.156Z,1011.09
2016-11-08T05:15:31.094Z,1011.05
2016-11-08T05:20:31.032Z,1011.09
2016-11-08T05:25:30.972Z,1011.08
2016-11-08T05:30:30.911Z,1011.1
2016-11-08T05:35:30.843Z,1011.15
2016-11-08T05:40:30.781Z,1011.16
2016-11-08T05:45:30.721Z,1011.09
2016-11-08T05:50:30.655Z,1011.14
2016-11-08T05:55:30.596Z,1011.13
2016-11-08T06:00:30.535Z,1011.12
2016-11-08T06:05:30.477Z,1011.15
2016-11-08T06:10:30.419Z,1011.25
2016-11-08T06:15:30.360Z,1011.34
2016-11-08T06:20:30.304Z,1011.24
2016-11-08T06:25:30.248Z,1011.22
2016-11-08T06:30:30.190Z,1011.17
2016-11-08T06:35:30.133Z,1011.26
2016-11-08T06:40:30.073Z,1011.29
2016-11-08T06:45:30.019Z,1011.32
2016-11-08T06:50:29.957Z,1011.3
2016-11-08T06:55:29.901Z,1011.37
2016-11-08T07:00:29.848Z,1011.49
2016-11-08T07:05:29.785Z,1011.48
2016-11-08T07:10:29.729Z,1011.45
2016-11-08T07:15:29.673Z,1011.52
2016-11-08T07:20:29.617Z,1011.52
2016-11-08T07:25:29.559Z,1011.61
2016-11-08T07:30:29.505Z,1011.63
2016-11-08T07:35:29.450Z,1011.66
2016-11-08T07:40:29.393Z,1011.67
2016-11-08T07:45:29.339Z,1011.7
2016-11-08T07:50:29.281Z,1011.71
2016-11-08T07:55:29.227Z,1011.72
2016-11-08T08:00:29.167Z,1011.76
2016-11-08T08:05:29.111Z,1011.78
2016-11-08T08:10:29.055Z,1011.73
2016-11-08T08:15:29.001Z,1011.81
2016-11-08T08:20:28.940Z,1011.81
2016-11-08T08:25:28.882Z,1011.83
2016-11-08T08:30:28.826Z,1011.82
2016-11-08T08:35:28.765Z,1011.78
2016-11-08T08:40:28.705Z,1011.64
2016-11-08T08:45:28.647Z,1011.69
2016-11-08T08:50:28.591Z,1011.69
2016-11-08T08:55:28.530Z,1011.7
2016-11-08T09:00:28.472Z,1011.78
2016-11-08T09:05:28.414Z,1011.81
2016-11-08T09:10:28.359Z,1011.82
2016-11-08T09:15:28.303Z,1011.81
2016-11-08T09:20:28.244Z,1011.78
2016-11-08T09:25:28.188Z,1011.89
2016-11-08T09:30:28.132Z,1011.96
2016-11-08T09:35:28.075Z,1011.91
2016-11-08T09:40:28.019Z,1011.8
2016-11-08T09:45:27.965Z,1011.79
2016-11-08T09:50:27.906Z,1011.79
2016-11-08T09:55:27.852Z,1011.73
2016-11-08T10:00:27.798Z,1011.71
2016-11-08T10:05:27.744Z,1011.73
2016-11-08T10:10:27.687Z,1011.79
2016-11-08T10:15:27.631Z,1011.72
2016-11-08T10:20:27.576Z,1011.73
2016-11-08T10:25:27.517Z,1011.73
2016-11-08T10:30:27.466Z,1011.65
2016-11-08T10:35:27.406Z,1011.67
2016-11-08T10:40:27.355Z,1011.67
2016-11-08T10:45:27.296Z,1011.67
2016-11-08T10:50:27.238Z,1011.72
2016-11-08T10:55:27.184Z,1011.73
2016-11-08T11:00:27.127Z,1011.68
2016-11-08T11:05:27.068Z,1011.63
2016-11-08T11:10:27.011Z,1011.53
2016-11-08T11:15:26.955Z,1011.55
2016-11-08T11:20:26.897Z,1011.43
2016-11-08T11:25:26.841Z,1011.44
2016-11-08T11:30:26.784Z,1011.4
2016-11-08T11:35:26.727Z,1011.33
2016-11-08T11:40:26.673Z,1011.35
2016-11-08T11:45:26.616Z,1011.32
2016-11-08T11:50:26.560Z,1011.34
2016-11-08T11:55:26.505Z,1011.39
2016-11-08T12:00:26.450Z,1011.33
2016-11-08T12:05:26.399Z,1011.33
2016-11-08T12:10:26.340Z,1011.29
2016-11-08T12:15:26.282Z,1011.28
2016-11-08T12:20:26.229Z,1011.27
2016-11-08T12:25:26.177Z,1011.29
2016-11-08T12:30:26.118Z,1011.31
2016-11-08T12:35:26.066Z,1011.4
2016-11-08T12:40:26.007Z,1011.27
2016-11-08T12:45:25.951Z,1011.3
2016-11-08T12:50:25.894Z,1011.36
2016-11-08T12:55:25.836Z,1011.39
2016-11-08T13:00:25.783Z,1011.34
2016-11-08T13:05:25.725Z,1011.4
2016-11-08T13:10:25.665Z,1011.35
2016-11-08T13:15:25.607Z,1011.37
2016-11-08T13:20:25.549Z,1011.31
2016-11-08T13:25:25.489Z,1011.31
2016-11-08T13:30:25.478Z,1011.33
2016-11-08T13:35:25.379Z,1011.3
2016-11-08T13:40:25.311Z,1011.3
2016-11-08T13:45:25.252Z,1011.29
2016-11-08T13:50:25.190Z,1011.25
2016-11-08T13:55:25.132Z,1011.29
2016-11-08T14:00:25.072Z,1011.2
2016-11-08T14:05:25.013Z,1011.2
2016-11-08T14:10:24.958Z,1011.23
2016-11-08T14:15:24.894Z,1011.24
2016-11-08T14:20:24.840Z,1011.25
2016-11-08T14:25:24.778Z,1011.26
2016-11-08T14:30:24.718Z,1011.26
2016-11-08T14:35:24.660Z,1011.3
2016-11-08T14:40:24.600Z,1011.27
2016-11-08T14:45:24.538Z,1011.21
2016-11-08T14:50:24.480Z,1011.19
2016-11-08T14:55:24.429Z,1011.18
2016-11-08T15:00:24.360Z,1011.16
2016-11-08T15:05:24.297Z,1011.13
2016-11-08T15:10:24.245Z,1011.06
2016-11-08T15:15:24.180Z,1011.08
2016-11-08T15:20:24.117Z,1011.04
2016-11-08T15:25:24.057Z,1011.06
2016-11-08T15:30:23.999Z,1011.01
2016-11-08T15:35:23.941Z,1010.99
2016-11-08T15:40:23.880Z,1010.98
2016-11-08T15:45:23.822Z,1011.06
2016-11-08T15:50:23.764Z,1011.04
2016-11-08T15:55:23.704Z,1011.03
2016-11-08T16:00:23.646Z,1010.99
2016-11-08T16:05:23.590Z,1010.96
2016-11-08T16:10:23.531Z,1010.97
2016-11-08T16:15:23.473Z,1011.02
2016-11-08T16:20:23.419Z,1011.05
2016-11-08T16:25:23.354Z,1011.05
2016-11-08T16:30:23.300Z,1011
2016-11-08T16:35:23.240Z,1010.94
2016-11-08T16:40:23.178Z,1010.99
2016-11-08T16:45:23.122Z,1011.01
2016-11-08T16:50:23.068Z,1010.97
2016-11-08T16:55:23.012Z,1010.93
2016-11-08T17:00:22.961Z,1010.89
2016-11-08T17:05:22.903Z,1010.83
2016-11-08T17:10:22.850Z,1010.88
2016-11-08T17:15:22.794Z,1010.82
2016-11-08T17:20:22.739Z,1010.8
2016-11-08T17:25:22.691Z,1010.83
2016-11-08T17:30:22.639Z,1010.87
2016-11-08T17:35:22.585Z,1010.85
2016-11-08T17:40:22.544Z,1010.83
2016-11-08T17:45:22.486Z,1010.88
2016-11-08T17:50:22.440Z,1010.84
2016-11-08T17:55:22.385Z,1010.77
2016-11-08T18:00:22.338Z,1010.7
2016-11-08T18:05:22.294Z,1010.64
2016-11-08T18:10:22.234Z,1010.55
2016-11-08T18:15:22.182Z,1010.51
2016-11-08T18:20:22.145Z,1010.51
2016-11-08T18:25:22.074Z,1010.54
2016-11-08T18:30:22.026Z,1010.46
2016-11-08T18:35:21.977Z,1010.47
2016-11-08T18:40:21.926Z,1010.41
2016-11-08T18:45:21.878Z,1010.41
2016-11-08T18:50:21.832Z,1010.43
2016-11-08T18:55:21.785Z,1010.4
2016-11-08T19:00:21.734Z,1010.4
2016-11-08T19:05:21.685Z,1010.34
2016-11-08T19:10:21.638Z,1010.35
2016-11-08T19:15:21.586Z,1010.31
2016-11-08T19:20:21.541Z,1010.3
2016-11-08T19:25:21.490Z,1010.27
2016-11-08T19:30:21.442Z,1010.24
2016-11-08T19:35:21.392Z,1010.18
2016-11-08T19:40:21.348Z,1010.13
2016-11-08T19:45:21.301Z,1010.08
2016-11-08T19:50:21.251Z,1010.03
2016-11-08T19:55:21.199Z,1009.97
2016-11-08T20:00:21.155Z,1009.98
2016-11-08T20:05:21.103Z,1009.85
2016-11-08T20:10:21.062Z,1009.8
2016-11-08T20:15:21.010Z,1009.71
2016-11-08T20:20:20.966Z,1009.7
2016-11-08T20:25:20.917Z,1009.83
2016-11-08T20:30:20.867Z,1009.8
2016-11-08T20:35:20.816Z,1009.81
2016-11-08T20:40:20.769Z,1009.67
2016-11-08T20:45:20.721Z,1009.63
2016-11-08T20:50:20.666Z,1009.61
2016-11-08T20:55:20.618Z,1009.56
2016-11-08T21:00:20.570Z,1009.64
2016-11-08T21:05:20.529Z,1009.64
2016-11-08T21:10:20.476Z,1009.53
2016-11-08T21:15:20.428Z,1009.41
2016-11-08T21:20:20.375Z,1009.41
2016-11-08T21:25:20.327Z,1009.32
2016-11-08T21:30:20.283Z,1009.31
2016-11-08T21:35:20.231Z,1009.31
2016-11-08T21:40:20.181Z,1009.2
2016-11-08T21:45:20.140Z,1009.16
2016-11-08T21:50:20.083Z,1009.08
2016-11-08T21:55:20.035Z,1009.05
2016-11-08T22:00:19.987Z,1008.98
2016-11-08T22:05:19.936Z,1008.94
2016-11-08T22:10:19.886Z,1008.87
2016-11-08T22:15:19.840Z,1008.81
2016-11-08T22:20:19.788Z,1008.78
2016-11-08T22:25:19.740Z,1008.74
2016-11-08T22:30:19.690Z,1008.7
2016-11-08T22:35:19.640Z,1008.7
2016-11-08T22:40:19.592Z,1008.67
2016-11-08T22:45:19.539Z,1008.65
2016-11-08T22:50:19.489Z,1008.58
2016-11-08T22:55:19.435Z,1008.56
2016-11-08T23:00:19.386Z,1008.58
2016-11-08T23:05:19.334Z,1008.61
2016-11-08T23:10:19.282Z,1008.54
2016-11-08T23:15:19.230Z,1008.54
2016-11-08T23:20:19.175Z,1008.51
2016-11-08T23:25:19.123Z,1008.39
2016-11-08T23:30:19.072Z,1008.4
2016-11-08T23:35:19.018Z,1008.34
2016-11-08T23:40:18.965Z,1008.19
2016-11-08T23:45:18.912Z,1008.18
2016-11-08T23:50:18.860Z,1008.15
2016-11-08T23:55:18.804Z,1008.05
